Jerrys Plains, New South Wales

7:27 AM AEDT on March 01, 2015 (GMT +1100)
Muswellbrook | Change Station
CLOSE
Current Station
Personal Weather Station
Location: Muswellbrook, NSW
Elevation: 522 ft
Nearby Weather Stations

Elev 522 ft 32.28 °S, 150.89 °E | Updated 7 minutes ago

Patches of Fog
Patches Fog
66.7 °F
Feels Like 66.7 °F
N
0.0
Wind Variable Wind from North
Gusts 0.0 mph

Today
High -- | Low -- °F
--% Chance of Precip.
Yesterday
High -- | Low -- °F
Precip. -- in
6:44 AM 7:32 PM
Waxing Gibbous, 80% visible
Pressure 29.71 in
Visibility 6.2 miles
Clouds Few 5000 ft
Dew Point 61 °F
Humidity 83%
Rainfall 0.00 in
Snow Depth Not available.
UV 0 out of 12
Pollen Not available.
Air Quality Not available.
Flu Activity Not available.
METAR YWLM 282000Z 36003KT 9999 BCFG FEW050 19/18 Q1006

More Conditions Fewer Conditions

Pressure 29.71 in
Visibility 6.2 miles
Clouds Few 5000 ft
Dew Point 61 °F
Humidity 83%
Rainfall 0.00 in
Snow Depth Not available.
UV 0 out of 12
Pollen Not available.
Air Quality Not available.
Flu Activity Not available.
METAR YWLM 282000Z 36003KT 9999 BCFG FEW050 19/18 Q1006

More Conditions Fewer Conditions

10-Day Weather Forecast

Almanac

Astronomy

Mar. 01, 2015 Rise Set
Actual Time
Civil Twilight
Nautical Twilight
Astronomical Twilight
Moon
Length of Visible Light
Length of Day
Tomorrow will be .
, % of the Moon is Illuminated

Today's Extremes

Country Highs Country Lows

Community

WunderPhotos

Upload Photos

1,801,135 photos uploaded!

WunderBlogs® & News

Nearby

Air Quality

  Air Quality AQ Index Pollutant
Not available.

Snow Depth

Station Depth Elevation

Earthquake Activity

City Distance Mag. Time & Date
Minimum magnitude displayed is 2.5.

Coastal Water Temperatures

Place Temperature

Nearby Weather Stations